EDDMEDMA

Guest
Details From EDDM - Muenchen Franz-Josef Strauss
To EDMA - Augsburg
Flight Number -
Tags decoded
Created
Modified
Stats Distance 64 nm / 119 km
Max Altitude 0 ft / 0 m
Waypoints 3
Social Downloads 0
Likes 0
Share VATSIM

Download

Looking for another format? Having issues loading an existing format? Contact us
Advertisement - Login to hide

Notes

Requested: EDDM MERSI EDMA

Route

EDDM MERSI EDMA

ID Type Via Altitude Latitude Longitude Leg Dist Tot Dist Heading (true) Name
O EDDM APT - 0 ft / 0 m 48.35379˚ 11.78612˚ - 0 nm - Muenchen Franz-Josef Strauss
MERSI FIX - 0 ft / 0 m 47.98222˚ 11.04250˚ 37 nm 37 nm 233° / 233° -
O EDMA APT - 0 ft / 0 m 48.42424˚ 10.93428˚ 26 nm 64 nm 351° / 351° Augsburg

Altitude Profile

Advertisement - Login to hide

EDDM

Details ICAO EDDM (MUC)
Name Muenchen Franz-Josef Strauss
Region Germany - Civil
Timezone Europe/Berlin (UTC+1.0)
Stats Elevation 1,487 ft / 453 m (AMSL)
Location 48.353786° 11.786117°
Runways 2
Magnetic Variation 3.161° E

METAR

EDDM 150820Z 25013KT 9999 FEW016 SCT180 03/M01 Q0999 NOSIG

Decode

TAF

TAF EDDM 150500Z 1506/1612 24015G25KT 9999 BKN020 PROB30 TEMPO 1506/1508 4000 SHSNRA BKN012TCU BECMG 1514/1516 24008KT PROB30 TEMPO 1604/1612 30015G25KT 2000 SHSN BKN012TCU

Decode

Departure Runways

ID Width Length Bearing (true) Bearing (mag) Surface Threshold Offset Overrun Length
08L 197 ft / 60 m 13,086 ft / 3,989 m 83.38° 80.22° Concrete 0 ft / 0 m 0 ft / 0 m
08R 197 ft / 60 m 13,086 ft / 3,989 m 83.37° 80.21° Concrete 0 ft / 0 m 0 ft / 0 m
26L 197 ft / 60 m 13,086 ft / 3,989 m 263.41° 260.25° Concrete 0 ft / 0 m 0 ft / 0 m
26R 197 ft / 60 m 13,086 ft / 3,989 m 263.42° 260.26° Concrete 0 ft / 0 m 0 ft / 0 m

EDMA

Details ICAO EDMA (AGB)
Name Augsburg
Region Germany - Civil
Timezone Europe/Berlin (UTC+1.0)
Stats Elevation 1,515 ft / 462 m (AMSL)
Location 48.424245° 10.934277°
Runways 2
Magnetic Variation 2.954° E

METAR

EDMA 150820Z 24007KT 9999 FEW019 02/M01 Q0998

Decode

TAF

Not found

Destination Runways

ID Width Length Bearing (true) Bearing (mag) Surface Threshold Offset Overrun Length
07 98 ft / 30 m 4,186 ft / 1,276 m 71.38° 68.43° Asphalt 0 ft / 0 m 164 ft / 50 m
07L 100 ft / 30 m 3,320 ft / 1,012 m 71.47° 68.52° Grass 0 ft / 0 m 0 ft / 0 m
25 98 ft / 30 m 4,186 ft / 1,276 m 251.39° 248.44° Asphalt 0 ft / 0 m 164 ft / 50 m
25R 100 ft / 30 m 3,320 ft / 1,012 m 251.48° 248.53° Grass 0 ft / 0 m 0 ft / 0 m

Approach Navaids

Runway Type Ident Frequency Range Bearing (true) Bearing (mag) Slope Elevation
25 Localiser AUG 108.50 MHz 18 nm / 33 km 251.39° 248.43° - 1,510 ft / 460 m (AMSL)
25 Glidescope AUG 108.50 MHz 10 nm / 19 km 251.39° 248.43° 3.50° 1,515 ft / 462 m (AMSL)

Popular Alternatives